createdAt,value
2019-04-22T00:04:10.087Z,51.50
2019-04-22T00:09:38.724Z,51.74
2019-04-22T00:14:36.608Z,51.31
2019-04-22T00:19:55.484Z,53.64
2019-04-22T00:24:51.205Z,52.80
2019-04-22T00:30:53.810Z,52.46
2019-04-22T00:35:00.601Z,52.98
2019-04-22T00:40:07.338Z,57.51
2019-04-22T00:45:11.854Z,56.31
2019-04-22T00:50:21.777Z,57.50
2019-04-22T00:55:26.268Z,59.27
2019-04-22T01:00:31.080Z,57.33
2019-04-22T01:05:46.859Z,57.38
2019-04-22T01:10:45.449Z,56.80
2019-04-22T01:15:47.472Z,56.56
2019-04-22T01:21:13.625Z,59.85
2019-04-22T01:25:53.104Z,64.64
2019-04-22T01:30:48.995Z,60.94
2019-04-22T01:36:04.659Z,58.67
2019-04-22T01:41:16.524Z,57.57
2019-04-22T01:46:25.761Z,60.05
2019-04-22T01:51:28.241Z,60.55
2019-04-22T01:56:35.021Z,62.69
2019-04-22T02:01:48.376Z,64.14
2019-04-22T02:06:43.978Z,61.27
2019-04-22T02:16:57.012Z,58.88
2019-04-22T02:21:56.591Z,59.55
2019-04-22T02:27:00.389Z,62.95
2019-04-22T02:32:19.388Z,62.19
2019-04-22T02:37:35.342Z,60.87
2019-04-22T02:42:42.858Z,60.17
2019-04-22T02:47:55.755Z,59.27
2019-04-22T02:52:58.072Z,58.91
2019-04-22T02:57:57.081Z,59.63
2019-04-22T03:03:24.825Z,61.92
2019-04-22T03:08:21.136Z,61.35
2019-04-22T03:13:29.445Z,60.63
2019-04-22T03:18:33.553Z,60.97
2019-04-22T03:23:34.114Z,61.14
2019-04-22T03:28:37.283Z,61.37
2019-04-22T03:39:12.763Z,60.33
2019-04-22T03:44:07.858Z,57.75
2019-04-22T03:49:23.942Z,59.22
2019-04-22T03:59:29.488Z,61.80
2019-04-22T04:19:34.949Z,65.63
2019-04-22T04:24:48.118Z,67.21
2019-04-22T04:35:03.207Z,68.74
2019-04-22T04:39:57.962Z,69.16
2019-04-22T04:45:26.598Z,69.43
2019-04-22T04:49:57.041Z,70.08
2019-04-22T04:55:14.432Z,71.29
2019-04-22T05:05:16.834Z,76.44
2019-04-22T05:10:26.487Z,77.96
2019-04-22T05:20:33.726Z,80.58
2019-04-22T05:30:34.241Z,80.19
2019-04-22T05:35:41.342Z,78.01
2019-04-22T05:40:40.767Z,76.89
2019-04-22T05:45:51.528Z,76.29
2019-04-22T05:50:57.928Z,78.81
2019-04-22T05:56:10.097Z,79.03
2019-04-22T06:06:17.883Z,75.61
2019-04-22T06:11:25.681Z,74.12
2019-04-22T06:16:31.150Z,73.72
2019-04-22T06:26:53.566Z,70.74
2019-04-22T06:36:51.103Z,67.28
2019-04-22T06:42:00.778Z,69.52
2019-04-22T06:47:03.432Z,69.41
2019-04-22T06:57:13.843Z,68.12
2019-04-22T07:02:23.888Z,66.75
2019-04-22T07:07:24.128Z,66.45
2019-04-22T07:12:31.375Z,67.06
2019-04-22T07:17:40.824Z,63.74
2019-04-22T07:22:59.438Z,64.68
2019-04-22T07:27:50.563Z,63.10
2019-04-22T07:38:00.291Z,63.18
2019-04-22T07:43:09.820Z,64.47
2019-04-22T07:48:22.547Z,64.78
2019-04-22T07:53:17.253Z,65.08
2019-04-22T07:58:26.041Z,65.44
2019-04-22T08:03:37.856Z,66.33
2019-04-22T08:08:38.804Z,67.47
2019-04-22T08:13:43.879Z,70.28
2019-04-22T08:18:47.324Z,71.25
2019-04-22T08:23:59.373Z,71.70
2019-04-22T08:29:11.530Z,72.72
2019-04-22T08:34:10.672Z,72.55
2019-04-22T08:39:14.077Z,72.48
2019-04-22T08:44:17.352Z,71.91
2019-04-22T08:49:19.913Z,72.18
2019-04-22T08:54:25.289Z,73.83
2019-04-22T08:59:31.524Z,74.73
2019-04-22T09:04:39.078Z,75.33
2019-04-22T09:09:48.948Z,77.81
2019-04-22T09:14:57.806Z,76.70
2019-04-22T09:19:55.876Z,78.46
2019-04-22T09:24:56.048Z,78.90
2019-04-22T09:30:10.468Z,76.93
2019-04-22T09:35:24.889Z,74.53
2019-04-22T09:40:20.265Z,73.15
2019-04-22T09:45:16.346Z,72.21
2019-04-22T09:50:29.421Z,70.32
2019-04-22T09:55:29.772Z,71.36
2019-04-22T10:00:42.696Z,70.61
2019-04-22T10:05:52.194Z,70.83
2019-04-22T10:10:48.996Z,68.79
2019-04-22T10:15:57.304Z,68.26
2019-04-22T10:21:02.098Z,66.47
2019-04-22T10:26:04.857Z,55.21
2019-04-22T10:31:17.130Z,54.88
2019-04-22T10:35:49.967Z,54.39
2019-04-22T10:40:54.538Z,54.68
2019-04-22T10:45:59.898Z,53.80
2019-04-22T10:51:04.564Z,52.84
2019-04-22T10:56:09.329Z,53.00
2019-04-22T11:01:13.602Z,52.94
2019-04-22T11:06:19.076Z,52.36
2019-04-22T11:11:37.557Z,51.45
2019-04-22T11:16:31.796Z,51.79
2019-04-22T11:21:35.957Z,50.40
2019-04-22T11:26:40.953Z,50.05
2019-04-22T11:31:44.575Z,52.60
2019-04-22T11:36:47.967Z,53.99
2019-04-22T11:41:52.379Z,55.42
2019-04-22T11:46:57.043Z,54.79
2019-04-22T11:52:04.769Z,53.09
2019-04-22T11:57:07.464Z,53.88
2019-04-22T12:02:14.421Z,54.15
2019-04-22T12:07:17.165Z,53.60
2019-04-22T12:12:21.551Z,53.85
2019-04-22T12:17:26.517Z,53.15
2019-04-22T12:22:31.270Z,53.66
2019-04-22T12:27:35.156Z,56.14
2019-04-22T12:32:39.042Z,57.87
2019-04-22T12:37:49.570Z,58.57
2019-04-22T12:42:49.060Z,58.86
2019-04-22T12:48:00.109Z,60.00
2019-04-22T12:53:10.441Z,63.99
2019-04-22T12:58:09.740Z,63.09
2019-04-22T13:03:13.783Z,64.00
2019-04-22T13:08:18.052Z,60.32
2019-04-22T13:13:22.935Z,58.69
2019-04-22T13:18:36.185Z,56.56
2019-04-22T13:23:31.813Z,55.78
2019-04-22T13:28:36.495Z,56.58
2019-04-22T13:33:40.989Z,56.04
2019-04-22T13:38:45.031Z,60.24
2019-04-22T13:43:49.326Z,68.01
2019-04-22T13:49:25.593Z,68.83
2019-04-22T13:59:23.065Z,63.96
2019-04-22T14:04:23.135Z,63.93
2019-04-22T14:09:26.466Z,62.32
2019-04-22T14:14:30.252Z,61.04
2019-04-22T14:19:36.293Z,62.65
2019-04-22T14:24:40.666Z,60.47
2019-04-22T14:29:44.009Z,61.41
2019-04-22T14:34:49.040Z,59.81
2019-04-22T14:39:53.806Z,59.91
2019-04-22T14:45:21.960Z,61.94
2019-04-22T14:50:22.036Z,59.38
2019-04-22T14:55:17.500Z,59.67
2019-04-22T15:00:18.128Z,59.34
2019-04-22T15:05:23.819Z,58.25
2019-04-22T15:10:28.230Z,57.25
2019-04-22T15:15:59.530Z,54.81
2019-04-22T15:21:09.097Z,55.32
2019-04-22T15:26:12.917Z,54.71
2019-04-22T15:31:19.372Z,54.02
2019-04-22T15:36:24.121Z,53.83
2019-04-22T15:41:28.573Z,51.79
2019-04-22T15:46:32.140Z,50.89
2019-04-22T15:51:36.413Z,49.77
2019-04-22T15:56:41.743Z,49.76
2019-04-22T16:01:46.660Z,48.85
2019-04-22T16:06:50.222Z,48.76
2019-04-22T16:11:54.051Z,49.73
2019-04-22T16:16:58.751Z,50.09
2019-04-22T16:22:16.821Z,50.53
2019-04-22T16:27:22.692Z,50.54
2019-04-22T16:32:27.615Z,50.67
2019-04-22T16:37:32.610Z,50.13
2019-04-22T16:42:43.849Z,50.91
2019-04-22T16:47:41.877Z,51.65
2019-04-22T16:52:54.291Z,52.64
2019-04-22T16:57:58.725Z,53.72
2019-04-22T17:03:22.637Z,52.86
2019-04-22T17:08:26.639Z,51.63
2019-04-22T17:13:32.754Z,50.37
2019-04-22T17:18:35.314Z,51.47
2019-04-22T17:23:38.636Z,52.49
2019-04-22T17:28:41.819Z,53.50
2019-04-22T17:33:45.000Z,54.82
2019-04-22T17:38:55.068Z,54.59
2019-04-22T17:44:21.750Z,54.43
2019-04-22T17:49:45.714Z,53.87
2019-04-22T17:54:49.397Z,53.42
2019-04-22T17:59:50.485Z,52.22
2019-04-22T18:04:46.764Z,51.86
2019-04-22T18:15:10.248Z,49.42
2019-04-22T18:20:13.007Z,47.83
2019-04-22T18:25:12.367Z,44.97
2019-04-22T18:30:21.874Z,44.70
2019-04-22T18:35:30.848Z,43.71
2019-04-22T18:40:37.286Z,44.56
2019-04-22T18:45:50.506Z,43.60
2019-04-22T18:50:59.919Z,43.57
2019-04-22T18:56:03.872Z,43.23
2019-04-22T19:00:48.419Z,43.63
2019-04-22T19:06:24.592Z,43.15
2019-04-22T19:11:17.110Z,42.96
2019-04-22T19:16:30.921Z,42.81
2019-04-22T19:21:26.409Z,43.20
2019-04-22T19:26:44.419Z,43.07
2019-04-22T19:31:41.012Z,42.81
2019-04-22T19:36:46.230Z,44.07
2019-04-22T19:41:53.688Z,43.79
2019-04-22T19:47:13.914Z,43.91
2019-04-22T19:52:05.458Z,44.36
2019-04-22T19:56:58.986Z,43.84
2019-04-22T20:02:21.869Z,44.79
2019-04-22T20:07:40.114Z,45.07
2019-04-22T20:12:42.794Z,45.26
2019-04-22T20:18:19.270Z,45.77
2019-04-22T20:22:57.636Z,45.53
2019-04-22T20:28:07.480Z,45.87
2019-04-22T20:33:02.136Z,46.24
2019-04-22T20:38:14.878Z,46.26
2019-04-22T20:43:23.527Z,46.42
2019-04-22T20:48:10.352Z,46.50
2019-04-22T20:53:34.411Z,46.26
2019-04-22T20:58:32.761Z,45.93
2019-04-22T21:03:29.346Z,45.79
2019-04-22T21:08:42.073Z,46.12
2019-04-22T21:13:50.475Z,47.33
2019-04-22T21:18:46.062Z,47.27
2019-04-22T21:23:53.513Z,47.59
2019-04-22T21:29:05.464Z,47.22
2019-04-22T21:34:06.844Z,48.13
2019-04-22T21:39:15.581Z,47.79
2019-04-22T21:44:21.267Z,47.79
2019-04-22T21:49:25.052Z,47.61
2019-04-22T21:54:34.440Z,48.04
2019-04-22T21:59:33.300Z,48.20
2019-04-22T22:04:33.720Z,48.47
2019-04-22T22:09:43.975Z,48.44
2019-04-22T22:14:49.770Z,48.47
2019-04-22T22:19:54.326Z,48.70
2019-04-22T22:25:01.479Z,49.07
2019-04-22T22:30:23.665Z,49.16
2019-04-22T22:35:11.218Z,49.28
2019-04-22T22:40:03.478Z,49.05
2019-04-22T22:45:10.757Z,49.21
2019-04-22T22:50:27.470Z,49.53
2019-04-22T22:55:36.614Z,49.31
2019-04-22T23:00:35.607Z,49.13
2019-04-22T23:05:45.439Z,49.33
2019-04-22T23:10:57.461Z,49.09
2019-04-22T23:15:44.332Z,49.30
2019-04-22T23:20:41.792Z,49.12
2019-04-22T23:26:06.832Z,48.71
2019-04-22T23:31:12.651Z,48.82
2019-04-22T23:36:18.587Z,49.21
2019-04-22T23:46:56.701Z,49.65
2019-04-22T23:52:08.883Z,49.67
2019-04-22T23:57:04.697Z,49.91
